首页
METAR-TAF:

METAR-TAF

机场 :

格拉斯哥机场

格拉斯哥, 苏格兰

纬度: 55-52N, 经度: 004-26W, 海拔: 8米

当前天气观测

该预报发布于18分钟前的09:20 UTC
风速6节,风向,在东北南转南东之间变化
温度 6°C
湿度 81%
气压 998 hPa
能见度10公里或以上
阴天层高于2900英尺

METAR: EGPF 220920Z AUTO 09006KT 050V150 9999 OVC029 06/03 Q0998

时间: 09:38 (09:38 UTC)

预报

该预报发布于4小时和38分钟前的05:00 UTC
预报有效从22日的 06点(UTC)到 23日的 06点(UTC)
风速9节,风向东转东北
能见度10公里或以上
散云层高于3500英尺
短暂存在
从 22日的 06点(UTC)到 23日的 02点(UTC)
能見度: 8000
多云层高于1400英尺
小雨
几率 40% :
短暂存在
从 22日的 20点(UTC)到 23日的 02点(UTC)

TAF: EGPF 220500Z 2206/2306 06009KT 9999 SCT035 TEMPO 2206/2302 8000 -RA BKN014 PROB40 TEMPO 2220/2302 RA

超过4000个机场的气象观测和天气预报(METAR&TAF报告)。

可查询的气象台以黄色和红色小点在地图上表示。

将鼠标移到小点上方,可查看气象台名称。

然后点击查看天气观测和预报。

如需切换地图:点击带黑十字的绿色按钮放大地图;点击带横线的绿色按钮缩小地图;或者点击绿色箭头查看邻近地区的地图。


METAR-TAF: